Wetterdaten: Woche 17.02.20 - 23.02.20 (KW8)
Datum Zeit Temp. Aussen Temp. o. S. Temp +5cm Feuchte Auss Luftdruck Regen Sonnenschein Regendauer Solar Windben Empfang
17.02.2020 00:00 7,6 C 6,5 C 6,1 C 95 % 1008,0 hPa 0,2 l/m 0,00 h 0,27 h 0 W/m 31,5 km/h (5 Bft) 96,46 %
17.02.2020 01:00 8,1 C 7,1 C 6,1 C 90 % 1009,1 hPa 0,0 l/m 0,00 h 0,00 h 0 W/m 27,9 km/h (4 Bft) 94,92 %
17.02.2020 02:00 8,4 C 7,8 C 6,1 C 88 % 1010,2 hPa 0,0 l/m 0,00 h 0,00 h 0 W/m 29,2 km/h (5 Bft) 98,29 %
17.02.2020 03:00 8,3 C 7,7 C 6,4 C 86 % 1010,8 hPa 0,0 l/m 0,00 h 0,00 h 0 W/m 28,4 km/h (4 Bft) 98,93 %
17.02.2020 04:00 8,1 C 7,2 C 6,7 C 83 % 1012,0 hPa 0,0 l/m 0,00 h 0,00 h 0 W/m 25,7 km/h (4 Bft) 94,24 %
17.02.2020 05:00 7,8 C 6,9 C 6,4 C 83 % 1012,7 hPa 0,0 l/m 0,00 h 0,00 h 0 W/m 19,7 km/h (3 Bft) 98,93 %
17.02.2020 06:00 7,6 C 6,9 C 6,3 C 82 % 1012,8 hPa 0,0 l/m 0,00 h 0,00 h 0 W/m 20,0 km/h (4 Bft) 98,22 %
17.02.2020 07:00 7,6 C 6,8 C 6,2 C 82 % 1012,7 hPa 0,0 l/m 0,00 h 0,00 h 5 W/m 20,6 km/h (4 Bft) 95,09 %
17.02.2020 08:00 7,8 C 7,2 C 6,6 C 84 % 1013,2 hPa 0,0 l/m 0,00 h 0,00 h 19 W/m 23,5 km/h (4 Bft) 98,36 %
17.02.2020 09:00 8,2 C 7,9 C 7,3 C 83 % 1013,4 hPa 0,0 l/m 0,00 h 0,00 h 76 W/m 26,9 km/h (4 Bft) 95,27 %
17.02.2020 10:00 8,9 C 10,6 C 7,9 C 80 % 1013,4 hPa 0,0 l/m 0,57 h 0,00 h 238 W/m 30,3 km/h (5 Bft) 97,86 %
17.02.2020 11:00 10,5 C 13,4 C 9,5 C 74 % 1013,4 hPa 0,0 l/m 1,00 h 0,00 h 447 W/m 34,3 km/h (5 Bft) 98,22 %
17.02.2020 12:00 11,4 C 13,7 C 11,0 C 68 % 1013,2 hPa 0,0 l/m 0,73 h 0,00 h 417 W/m 34,2 km/h (5 Bft) 98,09 %
17.02.2020 13:00 11,3 C 12,4 C 11,1 C 69 % 1012,8 hPa 0,0 l/m 0,47 h 0,00 h 271 W/m 33,8 km/h (5 Bft) 96,90 %
17.02.2020 14:00 11,0 C 10,4 C 9,3 C 71 % 1012,4 hPa 1,6 l/m 0,30 h 0,37 h 202 W/m 35,6 km/h (5 Bft) 95,89 %
17.02.2020 15:00 7,9 C 6,4 C 5,8 C 89 % 1013,0 hPa 1,2 l/m 0,20 h 0,67 h 82 W/m 19,3 km/h (3 Bft) 99,01 %
17.02.2020 16:00 7,8 C 7,0 C 6,1 C 92 % 1013,2 hPa 0,0 l/m 0,13 h 0,00 h 66 W/m 12,8 km/h (3 Bft) 96,39 %
17.02.2020 17:00 7,9 C 6,8 C 6,0 C 85 % 1013,4 hPa 0,2 l/m 0,00 h 0,00 h 15 W/m 18,3 km/h (3 Bft) 96,01 %
17.02.2020 18:00 7,6 C 6,9 C 6,2 C 82 % 1014,0 hPa 0,0 l/m 0,00 h 0,07 h 0 W/m 17,3 km/h (3 Bft) 97,94 %
17.02.2020 19:00 7,2 C 5,5 C 5,0 C 88 % 1014,8 hPa 0,0 l/m 0,00 h 0,30 h 0 W/m 8,7 km/h (2 Bft) 99,30 %
17.02.2020 20:00 6,8 C 5,8 C 5,2 C 91 % 1015,0 hPa 0,0 l/m 0,00 h 0,70 h 0 W/m 10,2 km/h (2 Bft) 96,75 %
17.02.2020 21:00 8,0 C 7,4 C 6,1 C 85 % 1015,2 hPa 0,0 l/m 0,00 h 0,27 h 0 W/m 23,1 km/h (4 Bft) 96,16 %
17.02.2020 22:00 8,1 C 7,2 C 6,7 C 85 % 1016,0 hPa 0,2 l/m 0,00 h 0,00 h 0 W/m 24,0 km/h (4 Bft) 99,72 %
17.02.2020 23:00 7,9 C 7,2 C 6,7 C 86 % 1016,7 hPa 0,0 l/m 0,00 h 0,00 h 0 W/m 22,2 km/h (4 Bft) 96,17 %
18.02.2020 00:00 7,8 C 7,0 C 6,5 C 86 % 1017,6 hPa 0,0 l/m 0,00 h 0,00 h 0 W/m 23,0 km/h (4 Bft) 97,09 %
18.02.2020 01:00 7,6 C 6,9 C 6,4 C 87 % 1018,4 hPa 0,0 l/m 0,00 h 0,03 h 0 W/m 22,5 km/h (4 Bft) 98,65 %
18.02.2020 02:00 7,4 C 6,6 C 6,0 C 86 % 1018,8 hPa 0,0 l/m 0,00 h 0,03 h 0 W/m 24,2 km/h (4 Bft) 94,84 %
18.02.2020 03:00 7,1 C 6,4 C 5,8 C 86 % 1019,1 hPa 0,0 l/m 0,00 h 0,00 h 0 W/m 27,6 km/h (4 Bft) 97,33 %
18.02.2020 04:00 6,9 C 6,0 C 5,5 C 84 % 1019,5 hPa 0,0 l/m 0,00 h 0,00 h 0 W/m 26,1 km/h (4 Bft) 95,43 %
18.02.2020 05:00 6,5 C 5,6 C 5,0 C 83 % 1020,5 hPa 0,0 l/m 0,00 h 0,00 h 0 W/m 23,8 km/h (4 Bft) 97,51 %
18.02.2020 06:00 6,3 C 5,6 C 5,0 C 84 % 1021,1 hPa 0,0 l/m 0,00 h 0,00 h 0 W/m 20,3 km/h (4 Bft) 99,56 %
18.02.2020 07:00 5,9 C 5,1 C 4,5 C 85 % 1021,4 hPa 0,0 l/m 0,00 h 0,00 h 7 W/m 18,6 km/h (3 Bft) 95,73 %
18.02.2020 08:00 5,9 C 5,5 C 4,8 C 87 % 1022,1 hPa 0,0 l/m 0,03 h 0,00 h 30 W/m 19,8 km/h (4 Bft) 97,93 %
18.02.2020 09:00 6,5 C 6,3 C 5,7 C 86 % 1022,7 hPa 0,0 l/m 0,00 h 0,00 h 73 W/m 22,1 km/h (4 Bft) 99,36 %
18.02.2020 10:00 7,2 C 8,1 C 6,7 C 83 % 1023,0 hPa 0,0 l/m 0,40 h 0,00 h 186 W/m 25,5 km/h (4 Bft) 95,48 %
18.02.2020 11:00 7,7 C 8,4 C 7,2 C 82 % 1022,9 hPa 0,0 l/m 0,27 h 0,00 h 202 W/m 27,1 km/h (4 Bft) 98,01 %
18.02.2020 12:00 8,2 C 8,6 C 8,3 C 80 % 1022,8 hPa 0,0 l/m 0,23 h 0,00 h 205 W/m 27,7 km/h (4 Bft) 98,01 %
18.02.2020 13:00 8,4 C 8,2 C 8,0 C 79 % 1022,3 hPa 0,0 l/m 0,00 h 0,00 h 134 W/m 26,4 km/h (4 Bft) 98,51 %
18.02.2020 14:00 7,9 C 7,2 C 6,8 C 83 % 1022,0 hPa 0,0 l/m 0,07 h 0,77 h 133 W/m 25,0 km/h (4 Bft) 96,16 %
18.02.2020 15:00 8,1 C 8,3 C 7,4 C 82 % 1021,6 hPa 0,0 l/m 0,40 h 0,37 h 143 W/m 24,4 km/h (4 Bft) 97,79 %
18.02.2020 16:00 8,8 C 9,0 C 7,7 C 77 % 1021,2 hPa 0,0 l/m 0,50 h 0,00 h 110 W/m 22,8 km/h (4 Bft) 99,29 %
18.02.2020 17:00 8,4 C 7,5 C 7,0 C 77 % 1020,8 hPa 0,0 l/m 0,07 h 0,00 h 21 W/m 22,5 km/h (4 Bft) 95,22 %
18.02.2020 18:00 7,7 C 6,8 C 6,3 C 79 % 1020,6 hPa 0,0 l/m 0,00 h 0,00 h 0 W/m 22,6 km/h (4 Bft) 96,64 %
18.02.2020 19:00 7,5 C 6,7 C 6,2 C 80 % 1020,4 hPa 0,0 l/m 0,00 h 0,00 h 0 W/m 30,9 km/h (5 Bft) 97,72 %
18.02.2020 20:00 7,5 C 6,7 C 6,1 C 79 % 1019,7 hPa 0,0 l/m 0,00 h 0,00 h 0 W/m 30,4 km/h (5 Bft) 97,29 %
18.02.2020 21:00 7,4 C 6,7 C 6,1 C 80 % 1019,0 hPa 0,0 l/m 0,00 h 0,00 h 0 W/m 31,4 km/h (5 Bft) 96,51 %
18.02.2020 22:00 7,6 C 6,7 C 6,3 C 80 % 1018,1 hPa 0,0 l/m 0,00 h 0,13 h 0 W/m 35,0 km/h (5 Bft) 98,43 %
18.02.2020 23:00 7,2 C 5,9 C 5,2 C 84 % 1016,8 hPa 0,0 l/m 0,00 h 0,97 h 0 W/m 29,7 km/h (5 Bft) 97,93 %
19.02.2020 00:00 7,2 C 6,4 C 5,6 C 83 % 1015,2 hPa 0,0 l/m 0,00 h 0,23 h 0 W/m 30,0 km/h (5 Bft) 96,59 %
19.02.2020 01:00 7,3 C 5,6 C 5,0 C 86 % 1014,0 hPa 0,6 l/m 0,00 h 1,00 h 0 W/m 37,2 km/h (5 Bft) 97,84 %
19.02.2020 02:00 6,7 C 5,0 C 4,4 C 91 % 1013,3 hPa 0,2 l/m 0,00 h 1,00 h 0 W/m 31,8 km/h (5 Bft) 97,37 %
19.02.2020 03:00 6,2 C 4,6 C 4,4 C 92 % 1013,0 hPa 0,0 l/m 0,00 h 0,77 h 0 W/m 14,8 km/h (3 Bft) 97,93 %
19.02.2020 04:00 5,9 C 4,4 C 4,0 C 92 % 1013,2 hPa 0,4 l/m 0,00 h 0,80 h 0 W/m 15,9 km/h (3 Bft) 98,50 %
19.02.2020 05:00 4,3 C 2,7 C 2,5 C 93 % 1014,4 hPa 2,0 l/m 0,00 h 0,43 h 0 W/m 16,0 km/h (3 Bft) 93,69 %
19.02.2020 06:00 3,4 C 2,5 C 2,2 C 96 % 1015,2 hPa 0,2 l/m 0,00 h 0,00 h 0 W/m 7,9 km/h (2 Bft) 98,34 %
19.02.2020 07:00 3,6 C 2,8 C 2,2 C 97 % 1016,4 hPa 0,2 l/m 0,00 h 0,00 h 6 W/m 9,3 km/h (2 Bft) 98,72 %
19.02.2020 08:00 3,5 C 2,8 C 2,2 C 96 % 1017,5 hPa 0,0 l/m 0,00 h 0,00 h 28 W/m 10,4 km/h (2 Bft) 93,47 %
19.02.2020 09:00 4,3 C 4,9 C 3,1 C 95 % 1018,3 hPa 0,0 l/m 0,43 h 0,00 h 135 W/m 14,7 km/h (3 Bft) 98,51 %
19.02.2020 10:00 5,6 C 7,5 C 4,3 C 89 % 1019,0 hPa 0,2 l/m 0,53 h 0,00 h 240 W/m 15,0 km/h (3 Bft) 97,50 %
19.02.2020 11:00 6,9 C 8,1 C 6,4 C 82 % 1019,7 hPa 0,0 l/m 0,33 h 0,00 h 225 W/m 21,2 km/h (4 Bft) 95,30 %
19.02.2020 12:00 7,1 C 8,0 C 7,1 C 78 % 1020,5 hPa 0,0 l/m 0,23 h 0,00 h 224 W/m 18,1 km/h (3 Bft) 98,06 %
19.02.2020 13:00 8,4 C 10,8 C 9,0 C 71 % 1020,8 hPa 0,0 l/m 0,90 h 0,00 h 391 W/m 20,5 km/h (4 Bft) 98,44 %
19.02.2020 14:00 8,2 C 9,0 C 7,5 C 73 % 1021,1 hPa 0,0 l/m 0,53 h 0,00 h 244 W/m 19,8 km/h (4 Bft) 96,07 %
19.02.2020 15:00 8,0 C 9,0 C 7,0 C 73 % 1021,4 hPa 0,0 l/m 0,67 h 0,00 h 212 W/m 18,0 km/h (3 Bft) 96,79 %
19.02.2020 16:00 7,2 C 6,6 C 6,0 C 74 % 1021,6 hPa 0,0 l/m 0,03 h 0,00 h 62 W/m 12,3 km/h (3 Bft) 98,14 %
19.02.2020 17:00 6,7 C 5,9 C 5,5 C 74 % 1021,8 hPa 0,0 l/m 0,00 h 0,00 h 21 W/m 13,6 km/h (3 Bft) 97,51 %
19.02.2020 18:00 5,8 C 4,5 C 4,1 C 74 % 1022,1 hPa 0,0 l/m 0,00 h 0,00 h 0 W/m 8,9 km/h (2 Bft) 94,98 %
19.02.2020 19:00 5,0 C 4,0 C 3,4 C 77 % 1022,0 hPa 0,0 l/m 0,00 h 0,00 h 0 W/m 10,7 km/h (2 Bft) 99,71 %
19.02.2020 20:00 4,5 C 3,7 C 3,1 C 80 % 1021,8 hPa 0,0 l/m 0,00 h 0,00 h 0 W/m 8,2 km/h (2 Bft) 96,78 %
19.02.2020 21:00 5,2 C 4,8 C 4,2 C 82 % 1021,5 hPa 0,0 l/m 0,00 h 0,17 h 0 W/m 20,1 km/h (4 Bft) 95,30 %
19.02.2020 22:00 5,7 C 4,4 C 3,9 C 90 % 1021,2 hPa 0,0 l/m 0,00 h 1,00 h 0 W/m 22,8 km/h (4 Bft) 98,72 %
19.02.2020 23:00 5,4 C 4,4 C 3,9 C 93 % 1020,8 hPa 0,0 l/m 0,00 h 0,70 h 0 W/m 15,1 km/h (3 Bft) 96,49 %
20.02.2020 00:00 5,4 C 4,4 C 3,9 C 94 % 1020,2 hPa 0,0 l/m 0,00 h 0,30 h 0 W/m 12,2 km/h (2 Bft) 97,74 %
20.02.2020 01:00 5,5 C 4,4 C 3,9 C 94 % 1019,6 hPa 0,2 l/m 0,00 h 0,93 h 0 W/m 9,4 km/h (2 Bft) 96,01 %
20.02.2020 02:00 5,9 C 5,4 C 4,7 C 95 % 1019,1 hPa 0,0 l/m 0,00 h 0,30 h 0 W/m 17,5 km/h (3 Bft) 98,72 %
20.02.2020 03:00 6,5 C 5,5 C 4,7 C 94 % 1018,5 hPa 0,2 l/m 0,00 h 0,97 h 0 W/m 10,7 km/h (2 Bft) 97,93 %
20.02.2020 04:00 6,8 C 6,0 C 5,2 C 94 % 1017,9 hPa 0,0 l/m 0,00 h 0,13 h 0 W/m 13,8 km/h (3 Bft) 97,87 %
20.02.2020 05:00 7,2 C 6,7 C 6,0 C 94 % 1017,6 hPa 0,0 l/m 0,00 h 0,00 h 0 W/m 17,6 km/h (3 Bft) 96,65 %
20.02.2020 06:00 7,3 C 6,7 C 6,1 C 93 % 1017,3 hPa 0,0 l/m 0,00 h 0,00 h 0 W/m 13,0 km/h (3 Bft) 97,57 %
20.02.2020 07:00 7,3 C 6,7 C 6,1 C 93 % 1017,1 hPa 0,0 l/m 0,00 h 0,00 h 4 W/m 12,8 km/h (3 Bft) 99,22 %
20.02.2020 08:00 7,6 C 7,3 C 6,6 C 92 % 1017,1 hPa 0,0 l/m 0,00 h 0,00 h 19 W/m 16,1 km/h (3 Bft) 96,09 %
20.02.2020 09:00 8,2 C 8,0 C 7,4 C 89 % 1017,0 hPa 0,0 l/m 0,00 h 0,00 h 49 W/m 27,1 km/h (4 Bft) 97,44 %
20.02.2020 10:00 9,0 C 9,0 C 8,3 C 86 % 1016,6 hPa 0,0 l/m 0,27 h 0,00 h 141 W/m 31,5 km/h (5 Bft) 98,50 %
20.02.2020 11:00 9,7 C 11,1 C 9,2 C 82 % 1016,4 hPa 0,0 l/m 0,77 h 0,03 h 299 W/m 31,9 km/h (5 Bft) 95,92 %
20.02.2020 12:00 10,0 C 9,8 C 9,4 C 80 % 1015,7 hPa 0,0 l/m 0,10 h 0,27 h 158 W/m 33,0 km/h (5 Bft) 98,05 %
20.02.2020 13:00 10,5 C 11,7 C 10,9 C 80 % 1014,8 hPa 0,0 l/m 0,63 h 0,07 h 312 W/m 34,4 km/h (5 Bft) 96,37 %
20.02.2020 14:00 10,7 C 11,0 C 10,1 C 78 % 1013,7 hPa 0,0 l/m 0,30 h 0,00 h 190 W/m 34,1 km/h (5 Bft) 97,72 %
20.02.2020 15:00 10,2 C 9,4 C 9,1 C 79 % 1013,1 hPa 0,0 l/m 0,00 h 0,03 h 64 W/m 33,7 km/h (5 Bft) 98,01 %
20.02.2020 16:00 9,9 C 9,4 C 8,9 C 78 % 1012,3 hPa 0,0 l/m 0,00 h 0,00 h 29 W/m 32,2 km/h (5 Bft) 94,98 %
20.02.2020 17:00 9,9 C 9,4 C 8,9 C 78 % 1011,2 hPa 0,0 l/m 0,00 h 0,00 h 13 W/m 34,6 km/h (5 Bft) 98,51 %
20.02.2020 18:00 10,1 C 9,3 C 8,9 C 78 % 1010,3 hPa 0,0 l/m 0,00 h 0,00 h 0 W/m 37,8 km/h (5 Bft) 96,61 %
20.02.2020 19:00 9,4 C 7,0 C 6,9 C 86 % 1009,8 hPa 0,4 l/m 0,00 h 1,00 h 0 W/m 43,9 km/h (6 Bft) 97,86 %
20.02.2020 20:00 8,3 C 6,3 C 5,8 C 92 % 1009,9 hPa 2,6 l/m 0,00 h 1,00 h 0 W/m 35,9 km/h (5 Bft) 99,79 %
20.02.2020 21:00 6,0 C 4,4 C 4,4 C 94 % 1012,5 hPa 0,6 l/m 0,00 h 1,00 h 0 W/m 22,2 km/h (4 Bft) 95,01 %
20.02.2020 22:00 5,1 C 3,9 C 3,6 C 96 % 1014,7 hPa 0,4 l/m 0,00 h 0,67 h 0 W/m 19,1 km/h (3 Bft) 97,94 %
20.02.2020 23:00 4,5 C 3,1 C 3,0 C 95 % 1016,3 hPa 0,0 l/m 0,00 h 1,00 h 0 W/m 25,3 km/h (4 Bft) 97,81 %
21.02.2020 00:00 4,0 C 2,8 C 2,3 C 93 % 1018,2 hPa 0,0 l/m 0,00 h 0,30 h 0 W/m 19,1 km/h (3 Bft) 96,45 %
21.02.2020 01:00 3,7 C 2,6 C 2,1 C 92 % 1019,6 hPa 0,0 l/m 0,00 h 0,00 h 0 W/m 14,1 km/h (3 Bft) 97,79 %
21.02.2020 02:00 3,4 C 2,2 C 1,7 C 93 % 1020,8 hPa 0,0 l/m 0,00 h 0,00 h 0 W/m 16,1 km/h (3 Bft) 95,31 %
21.02.2020 03:00 3,2 C 2,2 C 1,7 C 92 % 1021,7 hPa 0,0 l/m 0,00 h 0,00 h 0 W/m 15,3 km/h (3 Bft) 98,22 %
21.02.2020 04:00 3,1 C 2,4 C 2,0 C 93 % 1022,8 hPa 0,0 l/m 0,00 h 0,00 h 0 W/m 17,7 km/h (3 Bft) 98,65 %
21.02.2020 05:00 3,2 C 2,7 C 2,2 C 93 % 1023,8 hPa 0,0 l/m 0,00 h 0,00 h 0 W/m 18,1 km/h (3 Bft) 95,94 %
21.02.2020 06:00 3,0 C 2,2 C 1,7 C 92 % 1024,5 hPa 0,0 l/m 0,00 h 0,00 h 0 W/m 13,9 km/h (3 Bft) 98,16 %
21.02.2020 07:00 2,7 C 2,2 C 1,7 C 92 % 1025,0 hPa 0,0 l/m 0,00 h 0,00 h 8 W/m 16,2 km/h (3 Bft) 96,08 %
21.02.2020 08:00 3,0 C 2,9 C 2,1 C 92 % 1025,7 hPa 0,0 l/m 0,00 h 0,00 h 30 W/m 16,6 km/h (3 Bft) 98,22 %
21.02.2020 09:00 4,2 C 6,3 C 3,7 C 90 % 1026,2 hPa 0,0 l/m 0,57 h 0,00 h 166 W/m 17,5 km/h (3 Bft) 94,98 %
21.02.2020 10:00 6,2 C 9,6 C 5,3 C 85 % 1026,7 hPa 0,0 l/m 1,00 h 0,00 h 336 W/m 19,3 km/h (3 Bft) 96,44 %
21.02.2020 11:00 7,5 C 9,7 C 7,3 C 81 % 1027,0 hPa 0,0 l/m 1,00 h 0,00 h 308 W/m 20,2 km/h (4 Bft) 95,44 %
21.02.2020 12:00 8,2 C 8,5 C 8,2 C 79 % 1027,0 hPa 0,2 l/m 0,20 h 0,00 h 206 W/m 18,1 km/h (3 Bft) 98,67 %
21.02.2020 13:00 8,4 C 8,6 C 8,4 C 78 % 1026,8 hPa 0,0 l/m 0,27 h 0,00 h 211 W/m 23,1 km/h (4 Bft) 98,22 %
21.02.2020 14:00 8,4 C 8,2 C 7,8 C 78 % 1026,4 hPa 0,0 l/m 0,00 h 0,00 h 104 W/m 20,6 km/h (4 Bft) 97,30 %
21.02.2020 15:00 8,6 C 8,3 C 7,9 C 79 % 1026,2 hPa 0,0 l/m 0,00 h 0,00 h 101 W/m 19,1 km/h (3 Bft) 96,65 %
21.02.2020 16:00 9,0 C 8,7 C 8,3 C 77 % 1025,8 hPa 0,0 l/m 0,10 h 0,00 h 80 W/m 21,7 km/h (4 Bft) 99,29 %
21.02.2020 17:00 8,9 C 8,1 C 7,5 C 78 % 1025,7 hPa 0,0 l/m 0,10 h 0,00 h 29 W/m 26,9 km/h (4 Bft) 97,86 %
21.02.2020 18:00 8,2 C 7,3 C 7,1 C 79 % 1025,7 hPa 0,0 l/m 0,00 h 0,00 h 0 W/m 24,1 km/h (4 Bft) 92,11 %
21.02.2020 19:00 8,3 C 7,7 C 7,2 C 77 % 1025,9 hPa 0,0 l/m 0,00 h 0,00 h 0 W/m 25,7 km/h (4 Bft) 99,72 %
21.02.2020 20:00 8,2 C 7,5 C 7,1 C 76 % 1025,9 hPa 0,0 l/m 0,00 h 0,00 h 0 W/m 25,7 km/h (4 Bft) 97,65 %
21.02.2020 21:00 8,1 C 7,2 C 6,8 C 77 % 1025,6 hPa 0,0 l/m 0,00 h 0,00 h 0 W/m 27,2 km/h (4 Bft) 96,37 %
21.02.2020 22:00 7,8 C 7,2 C 6,7 C 78 % 1025,3 hPa 0,0 l/m 0,00 h 0,00 h 0 W/m 25,7 km/h (4 Bft) 98,64 %
21.02.2020 23:00 7,7 C 6,9 C 6,6 C 78 % 1024,7 hPa 0,0 l/m 0,00 h 0,00 h 0 W/m 28,7 km/h (4 Bft) 97,29 %
22.02.2020 00:00 7,5 C 6,7 C 6,1 C 79 % 1024,3 hPa 0,0 l/m 0,00 h 0,00 h 0 W/m 28,9 km/h (5 Bft) 97,10 %
22.02.2020 01:00 7,3 C 6,6 C 6,0 C 80 % 1023,9 hPa 0,0 l/m 0,00 h 0,00 h 0 W/m 30,7 km/h (5 Bft) 96,94 %
22.02.2020 02:00 7,0 C 6,1 C 5,6 C 81 % 1023,2 hPa 0,0 l/m 0,00 h 0,00 h 0 W/m 28,0 km/h (4 Bft) 96,01 %
22.02.2020 03:00 6,5 C 5,6 C 5,0 C 83 % 1022,2 hPa 0,0 l/m 0,00 h 0,00 h 0 W/m 24,7 km/h (4 Bft) 98,79 %
22.02.2020 04:00 6,0 C 5,2 C 4,5 C 84 % 1021,7 hPa 0,0 l/m 0,00 h 0,00 h 0 W/m 28,1 km/h (4 Bft) 97,65 %
22.02.2020 05:00 6,2 C 5,6 C 5,0 C 80 % 1021,0 hPa 0,0 l/m 0,00 h 0,00 h 0 W/m 28,3 km/h (4 Bft) 95,72 %
22.02.2020 06:00 6,4 C 5,8 C 5,1 C 74 % 1020,3 hPa 0,0 l/m 0,00 h 0,00 h 0 W/m 25,4 km/h (4 Bft) 98,45 %
22.02.2020 07:00 7,1 C 6,6 C 5,9 C 68 % 1020,1 hPa 0,0 l/m 0,00 h 0,00 h 8 W/m 32,7 km/h (5 Bft) 97,86 %
22.02.2020 08:00 7,7 C 7,4 C 6,7 C 66 % 1019,9 hPa 0,0 l/m 0,17 h 0,00 h 54 W/m 32,4 km/h (5 Bft) 95,10 %
22.02.2020 09:00 8,6 C 8,2 C 7,6 C 62 % 1019,6 hPa 0,0 l/m 0,00 h 0,00 h 63 W/m 39,4 km/h (6 Bft) 94,85 %
22.02.2020 10:00 9,1 C 8,5 C 7,8 C 62 % 1019,4 hPa 0,0 l/m 0,00 h 0,00 h 77 W/m 33,7 km/h (5 Bft) 98,08 %
22.02.2020 11:00 9,2 C 9,0 C 8,4 C 66 % 1019,5 hPa 0,0 l/m 0,00 h 0,13 h 130 W/m 31,0 km/h (5 Bft) 98,22 %
22.02.2020 12:00 9,4 C 8,9 C 8,3 C 72 % 1019,5 hPa 0,0 l/m 0,00 h 0,40 h 123 W/m 33,2 km/h (5 Bft) 96,57 %
22.02.2020 13:00 9,4 C 9,1 C 8,6 C 76 % 1020,0 hPa 0,0 l/m 0,00 h 0,00 h 94 W/m 29,4 km/h (5 Bft) 95,40 %
22.02.2020 14:00 9,2 C 8,9 C 8,3 C 81 % 1020,4 hPa 0,0 l/m 0,00 h 0,00 h 61 W/m 27,0 km/h (4 Bft) 98,71 %
22.02.2020 15:00 9,6 C 9,3 C 8,8 C 84 % 1020,1 hPa 0,0 l/m 0,00 h 0,00 h 95 W/m 29,7 km/h (5 Bft) 97,37 %
22.02.2020 16:00 9,7 C 9,1 C 8,6 C 86 % 1020,0 hPa 0,0 l/m 0,00 h 0,00 h 26 W/m 33,7 km/h (5 Bft) 95,23 %
22.02.2020 17:00 9,6 C 8,9 C 8,3 C 89 % 1020,1 hPa 0,0 l/m 0,00 h 0,00 h 10 W/m 31,2 km/h (5 Bft) 99,36 %
22.02.2020 18:00 9,6 C 8,6 C 8,0 C 90 % 1020,7 hPa 0,0 l/m 0,00 h 0,27 h 0 W/m 27,5 km/h (4 Bft) 98,16 %
22.02.2020 19:00 9,3 C 7,8 C 7,2 C 94 % 1021,2 hPa 0,2 l/m 0,00 h 0,83 h 0 W/m 23,4 km/h (4 Bft) 93,68 %
22.02.2020 20:00 9,3 C 7,8 C 7,4 C 96 % 1021,5 hPa 0,8 l/m 0,00 h 1,00 h 0 W/m 21,0 km/h (4 Bft) 98,86 %
22.02.2020 21:00 9,3 C 8,0 C 7,8 C 97 % 1021,4 hPa 1,6 l/m 0,00 h 1,00 h 0 W/m 19,4 km/h (3 Bft) 96,72 %
22.02.2020 22:00 9,3 C 8,1 C 7,7 C 97 % 1021,6 hPa 0,0 l/m 0,00 h 0,70 h 0 W/m 20,6 km/h (4 Bft) 95,92 %
22.02.2020 23:00 9,1 C 7,8 C 7,2 C 97 % 1021,7 hPa 0,2 l/m 0,00 h 0,47 h 0 W/m 21,4 km/h (4 Bft) 98,36 %
23.02.2020 00:00 9,1 C 7,9 C 7,2 C 97 % 1021,8 hPa 0,2 l/m 0,00 h 0,53 h 0 W/m 21,5 km/h (4 Bft) 96,13 %
23.02.2020 01:00 9,2 C 8,3 C 7,2 C 96 % 1021,7 hPa 0,0 l/m 0,00 h 0,00 h 0 W/m 19,6 km/h (3 Bft) 99,57 %
23.02.2020 02:00 9,3 C 8,4 C 7,2 C 94 % 1021,1 hPa 0,0 l/m 0,00 h 0,13 h 0 W/m 18,4 km/h (3 Bft) 97,29 %
23.02.2020 03:00 9,0 C 7,6 C 7,2 C 95 % 1020,2 hPa 1,2 l/m 0,00 h 1,00 h 0 W/m 21,8 km/h (4 Bft) 96,16 %
23.02.2020 04:00 8,7 C 7,2 C 7,1 C 97 % 1019,4 hPa 1,6 l/m 0,00 h 1,00 h 0 W/m 15,6 km/h (3 Bft) 98,19 %
23.02.2020 05:00 8,6 C 7,2 C 6,7 C 97 % 1019,0 hPa 1,6 l/m 0,00 h 1,00 h 0 W/m 20,4 km/h (4 Bft) 96,51 %
23.02.2020 06:00 8,3 C 6,9 C 6,7 C 97 % 1017,2 hPa 1,2 l/m 0,00 h 1,00 h 0 W/m 17,6 km/h (3 Bft) 96,69 %
23.02.2020 07:00 8,4 C 7,2 C 7,0 C 97 % 1014,5 hPa 1,0 l/m 0,00 h 1,00 h 0 W/m 11,9 km/h (2 Bft) 97,68 %
23.02.2020 08:00 9,3 C 8,4 C 7,8 C 99 % 1012,2 hPa 0,6 l/m 0,00 h 1,00 h 15 W/m 39,0 km/h (6 Bft) 96,29 %
23.02.2020 09:00 10,7 C 9,5 C 8,9 C 98 % 1010,9 hPa 0,2 l/m 0,00 h 1,00 h 31 W/m 48,0 km/h (6 Bft) 96,87 %
23.02.2020 10:00 11,4 C 10,2 C 9,5 C 97 % 1010,2 hPa 0,0 l/m 0,00 h 1,00 h 36 W/m 41,1 km/h (6 Bft) 98,22 %
23.02.2020 11:00 11,9 C 10,6 C 10,0 C 96 % 1009,9 hPa 2,6 l/m 0,00 h 1,00 h 43 W/m 39,0 km/h (6 Bft) 98,15 %
23.02.2020 12:00 11,9 C 10,6 C 10,0 C 97 % 1010,1 hPa 1,4 l/m 0,00 h 1,00 h 42 W/m 38,9 km/h (6 Bft) 96,21 %
23.02.2020 13:00 11,8 C 10,6 C 10,0 C 97 % 1010,3 hPa 1,6 l/m 0,00 h 1,00 h 37 W/m 35,3 km/h (5 Bft) 98,01 %
23.02.2020 14:00 11,8 C 10,6 C 10,0 C 98 % 1010,2 hPa 0,4 l/m 0,00 h 1,00 h 43 W/m 30,2 km/h (5 Bft) 99,43 %
23.02.2020 15:00 11,9 C 10,7 C 10,1 C 98 % 1010,5 hPa 0,2 l/m 0,00 h 0,83 h 55 W/m 34,9 km/h (5 Bft) 94,44 %
23.02.2020 16:00 11,8 C 10,6 C 10,0 C 97 % 1011,1 hPa 1,6 l/m 0,00 h 1,00 h 41 W/m 33,7 km/h (5 Bft) 98,86 %
23.02.2020 17:00 9,7 C 8,1 C 7,9 C 97 % 1013,7 hPa 1,2 l/m 0,00 h 0,83 h 7 W/m 38,3 km/h (5 Bft) 98,05 %
23.02.2020 18:00 7,9 C 6,7 C 6,3 C 95 % 1015,9 hPa 0,0 l/m 0,00 h 0,00 h 0 W/m 31,5 km/h (5 Bft) 94,40 %
23.02.2020 19:00 7,8 C 6,9 C 6,5 C 92 % 1017,8 hPa 0,0 l/m 0,00 h 0,00 h 0 W/m 26,9 km/h (4 Bft) 99,23 %
23.02.2020 20:00 7,3 C 6,5 C 5,7 C 88 % 1019,7 hPa 0,0 l/m 0,00 h 0,00 h 0 W/m 26,7 km/h (4 Bft) 97,72 %
23.02.2020 21:00 6,8 C 5,9 C 5,3 C 88 % 1021,2 hPa 0,0 l/m 0,00 h 0,00 h 0 W/m 20,3 km/h (4 Bft) 96,94 %
23.02.2020 22:00 6,1 C 4,9 C 4,5 C 87 % 1022,5 hPa 0,0 l/m 0,00 h 0,00 h 0 W/m 9,4 km/h (2 Bft) 98,36 %
23.02.2020 23:00 5,2 C 4,0 C 3,7 C 88 % 1023,2 hPa 0,0 l/m 0,00 h 0,00 h 0 W/m 7,2 km/h (2 Bft) 96,30 %
Min-Datum _ 21.02.20 19.02.20 19.02.20 22.02.20 17.02.20 - - - - 17.02.20 22.02.20
_ Min-Zeit 07:14 05:18 05:18 09:42 00:20 - - - - 16:02 09:52
Minimum _ 2,7 C 2,2 C 1,7 C 60 % 1007,0 hPa - - - - 0,0 km/h (0 Bft) 31,03 %
Max-Datum _ 23.02.20 17.02.20 20.02.20 23.02.20 21.02.20 20.02.20 17.02.20 17.02.20 19.02.20 20.02.20 17.02.20
_ Max-Zeit 11:48 12:04 13:08 08:22 12:12 20:40 12:08 00:08 12:56 20:44 00:02
Maximum _ 12,0 C 15,6 C 13,3 C 99 % 1027,3 hPa 2,6 l/m 0,07 h 0,07 h 628 W/m 86,9 km/h
SO (9 Bft)
100,00 %
Durchschnitt _ 7,6 C 7,1 C 6,3 C 86 % 1018,4 hPa #31,2 l/m #14:30 h #39:16 h 116 W/m 23,9 km/h (4 Bft) 97,23 %
© 2020 W. Hausmann